sensor_id;sensor_type;location;lat;lon;timestamp;pressure;altitude;pressure_sealevel;temperature;humidity
6514;BME280;3290;47.716;9.070;2024-03-29T00:01:01;95353.50;;;6.89;93.41
6514;BME280;3290;47.716;9.070;2024-03-29T00:03:27;95362.38;;;6.88;93.46
6514;BME280;3290;47.716;9.070;2024-03-29T00:05:52;95355.88;;;6.91;92.29
6514;BME280;3290;47.716;9.070;2024-03-29T00:08:18;95358.59;;;6.96;93.50
6514;BME280;3290;47.716;9.070;2024-03-29T00:10:47;95348.88;;;7.30;90.67
6514;BME280;3290;47.716;9.070;2024-03-29T00:13:12;95350.88;;;7.40;90.59
6514;BME280;3290;47.716;9.070;2024-03-29T00:15:38;95349.63;;;7.42;89.49
6514;BME280;3290;47.716;9.070;2024-03-29T00:18:03;95328.81;;;7.58;89.34
6514;BME280;3290;47.716;9.070;2024-03-29T00:20:28;95338.38;;;7.69;88.61
6514;BME280;3290;47.716;9.070;2024-03-29T00:22:55;95329.44;;;7.49;88.08
6514;BME280;3290;47.716;9.070;2024-03-29T00:25:20;95311.22;;;7.21;89.43
6514;BME280;3290;47.716;9.070;2024-03-29T00:27:45;95303.41;;;7.21;90.37
6514;BME280;3290;47.716;9.070;2024-03-29T00:30:11;95310.78;;;7.41;88.76
6514;BME280;3290;47.716;9.070;2024-03-29T00:32:37;95301.81;;;7.20;90.91
6514;BME280;3290;47.716;9.070;2024-03-29T00:35:02;95275.63;;;7.27;90.14
6514;BME280;3290;47.716;9.070;2024-03-29T00:37:28;95274.25;;;7.52;89.32
6514;BME280;3290;47.716;9.070;2024-03-29T00:39:53;95275.31;;;7.40;89.36
6514;BME280;3290;47.716;9.070;2024-03-29T00:42:18;95264.69;;;7.41;88.58
6514;BME280;3290;47.716;9.070;2024-03-29T00:44:45;95255.03;;;7.42;88.70
6514;BME280;3290;47.716;9.070;2024-03-29T00:47:10;95259.13;;;7.21;88.96
6514;BME280;3290;47.716;9.070;2024-03-29T00:49:36;95241.63;;;7.33;88.26
6514;BME280;3290;47.716;9.070;2024-03-29T00:52:03;95228.97;;;6.81;91.97
6514;BME280;3290;47.716;9.070;2024-03-29T00:54:28;95226.22;;;6.49;93.90
6514;BME280;3290;47.716;9.070;2024-03-29T00:56:54;95218.47;;;6.38;94.70
6514;BME280;3290;47.716;9.070;2024-03-29T00:59:19;95210.63;;;6.49;94.26
6514;BME280;3290;47.716;9.070;2024-03-29T01:01:45;95205.56;;;6.70;93.51
6514;BME280;3290;47.716;9.070;2024-03-29T01:04:11;95213.84;;;6.28;95.63
6514;BME280;3290;47.716;9.070;2024-03-29T01:06:37;95209.91;;;6.65;94.03
6514;BME280;3290;47.716;9.070;2024-03-29T01:09:03;95211.22;;;6.78;93.19
6514;BME280;3290;47.716;9.070;2024-03-29T01:11:29;95203.91;;;6.92;92.32
6514;BME280;3290;47.716;9.070;2024-03-29T01:13:55;95200.94;;;6.33;94.63
6514;BME280;3290;47.716;9.070;2024-03-29T01:16:21;95212.31;;;6.04;95.95
6514;BME280;3290;47.716;9.070;2024-03-29T01:18:46;95211.25;;;6.28;95.18
6514;BME280;3290;47.716;9.070;2024-03-29T01:21:15;95206.38;;;6.43;94.12
6514;BME280;3290;47.716;9.070;2024-03-29T01:23:40;95211.84;;;6.58;93.56
6514;BME280;3290;47.716;9.070;2024-03-29T01:26:07;95198.38;;;6.61;93.54
6514;BME280;3290;47.716;9.070;2024-03-29T01:28:33;95214.03;;;6.49;94.73
6514;BME280;3290;47.716;9.070;2024-03-29T01:30:58;95227.63;;;6.40;95.18
6514;BME280;3290;47.716;9.070;2024-03-29T01:33:24;95225.03;;;6.40;94.53
6514;BME280;3290;47.716;9.070;2024-03-29T01:35:50;95233.31;;;6.26;95.98
6514;BME280;3290;47.716;9.070;2024-03-29T01:38:15;95223.38;;;6.11;95.48
6514;BME280;3290;47.716;9.070;2024-03-29T01:40:41;95200.88;;;5.49;99.16
6514;BME280;3290;47.716;9.070;2024-03-29T01:43:06;95215.03;;;5.64;98.18
6514;BME280;3290;47.716;9.070;2024-03-29T01:45:35;95222.28;;;5.73;98.02
6514;BME280;3290;47.716;9.070;2024-03-29T01:48:01;95223.38;;;6.11;95.43
6514;BME280;3290;47.716;9.070;2024-03-29T01:50:26;95229.00;;;6.31;94.03
6514;BME280;3290;47.716;9.070;2024-03-29T01:52:52;95239.41;;;6.31;94.70
6514;BME280;3290;47.716;9.070;2024-03-29T01:55:18;95234.16;;;6.54;93.84
6514;BME280;3290;47.716;9.070;2024-03-29T01:57:43;95236.25;;;6.29;93.19
6514;BME280;3290;47.716;9.070;2024-03-29T02:00:09;95248.59;;;6.11;94.26
6514;BME280;3290;47.716;9.070;2024-03-29T02:02:36;95239.66;;;6.18;94.89
6514;BME280;3290;47.716;9.070;2024-03-29T02:05:02;95231.50;;;6.03;95.10
6514;BME280;3290;47.716;9.070;2024-03-29T02:07:28;95223.97;;;5.79;95.69
6514;BME280;3290;47.716;9.070;2024-03-29T02:09:54;95241.47;;;5.84;95.16
6514;BME280;3290;47.716;9.070;2024-03-29T02:12:19;95227.94;;;5.82;95.56
6514;BME280;3290;47.716;9.070;2024-03-29T02:14:44;95225.81;;;5.38;97.13
6514;BME280;3290;47.716;9.070;2024-03-29T02:17:10;95215.19;;;5.28;97.97
6514;BME280;3290;47.716;9.070;2024-03-29T02:19:35;95213.06;;;5.25;98.28
6514;BME280;3290;47.716;9.070;2024-03-29T02:22:01;95218.13;;;5.32;97.50
6514;BME280;3290;47.716;9.070;2024-03-29T02:24:27;95203.53;;;5.08;98.68
6514;BME280;3290;47.716;9.070;2024-03-29T02:26:56;95222.41;;;4.86;100.00
6514;BME280;3290;47.716;9.070;2024-03-29T02:29:21;95217.47;;;5.36;97.93
6514;BME280;3290;47.716;9.070;2024-03-29T02:31:46;95210.22;;;5.16;99.40
6514;BME280;3290;47.716;9.070;2024-03-29T02:34:12;95218.38;;;5.30;99.26
6514;BME280;3290;47.716;9.070;2024-03-29T02:36:37;95212.38;;;5.30;98.04
6514;BME280;3290;47.716;9.070;2024-03-29T02:39:03;95203.25;;;5.27;99.25
6514;BME280;3290;47.716;9.070;2024-03-29T02:41:28;95204.66;;;5.12;99.71
6514;BME280;3290;47.716;9.070;2024-03-29T02:43:55;95194.41;;;5.06;99.89
6514;BME280;3290;47.716;9.070;2024-03-29T02:46:21;95196.69;;;4.84;100.00
6514;BME280;3290;47.716;9.070;2024-03-29T02:48:46;95209.91;;;4.83;100.00
6514;BME280;3290;47.716;9.070;2024-03-29T02:51:12;95193.88;;;4.86;100.00
6514;BME280;3290;47.716;9.070;2024-03-29T02:53:37;95206.91;;;4.97;100.00
6514;BME280;3290;47.716;9.070;2024-03-29T02:56:04;95210.00;;;5.28;98.40
6514;BME280;3290;47.716;9.070;2024-03-29T02:58:29;95204.50;;;5.25;98.80
6514;BME280;3290;47.716;9.070;2024-03-29T03:00:54;95228.53;;;4.91;100.00
6514;BME280;3290;47.716;9.070;2024-03-29T03:03:20;95233.91;;;5.08;100.00
6514;BME280;3290;47.716;9.070;2024-03-29T03:05:45;95232.34;;;5.29;100.00
6514;BME280;3290;47.716;9.070;2024-03-29T03:08:11;95227.16;;;5.18;100.00
6514;BME280;3290;47.716;9.070;2024-03-29T03:10:54;95236.84;;;5.22;99.92
6514;BME280;3290;47.716;9.070;2024-03-29T03:13:27;95245.91;;;5.31;99.08
6514;BME280;3290;47.716;9.070;2024-03-29T03:15:53;95240.28;;;5.34;98.89
6514;BME280;3290;47.716;9.070;2024-03-29T03:18:18;95247.44;;;5.10;100.00
6514;BME280;3290;47.716;9.070;2024-03-29T03:20:53;95224.56;;;5.18;99.14
6514;BME280;3290;47.716;9.070;2024-03-29T03:23:18;95217.69;;;4.83;100.00
6514;BME280;3290;47.716;9.070;2024-03-29T03:25:45;95212.09;;;4.68;100.00
6514;BME280;3290;47.716;9.070;2024-03-29T03:28:10;95196.84;;;4.89;99.34
6514;BME280;3290;47.716;9.070;2024-03-29T03:30:39;95192.56;;;4.37;100.00
6514;BME280;3290;47.716;9.070;2024-03-29T03:33:05;95209.72;;;4.67;100.00
6514;BME280;3290;47.716;9.070;2024-03-29T03:35:31;95202.97;;;4.66;100.00
6514;BME280;3290;47.716;9.070;2024-03-29T03:37:56;95196.63;;;4.62;100.00
6514;BME280;3290;47.716;9.070;2024-03-29T03:40:21;95193.38;;;4.66;100.00
6514;BME280;3290;47.716;9.070;2024-03-29T03:42:47;95189.31;;;4.70;100.00
6514;BME280;3290;47.716;9.070;2024-03-29T03:45:12;95204.97;;;4.93;100.00
6514;BME280;3290;47.716;9.070;2024-03-29T03:47:38;95211.53;;;5.07;100.00
6514;BME280;3290;47.716;9.070;2024-03-29T03:50:04;95211.19;;;5.03;100.00
6514;BME280;3290;47.716;9.070;2024-03-29T03:52:29;95223.75;;;5.06;100.00
6514;BME280;3290;47.716;9.070;2024-03-29T03:54:55;95226.81;;;5.26;100.00
6514;BME280;3290;47.716;9.070;2024-03-29T03:57:20;95236.91;;;5.34;100.00
6514;BME280;3290;47.716;9.070;2024-03-29T03:59:45;95227.06;;;5.36;100.00
6514;BME280;3290;47.716;9.070;2024-03-29T04:02:10;95235.38;;;5.26;100.00
6514;BME280;3290;47.716;9.070;2024-03-29T04:04:36;95227.75;;;5.54;100.00
6514;BME280;3290;47.716;9.070;2024-03-29T04:07:01;95226.25;;;5.24;100.00
6514;BME280;3290;47.716;9.070;2024-03-29T04:09:27;95215.31;;;5.33;99.64
6514;BME280;3290;47.716;9.070;2024-03-29T04:11:52;95210.69;;;5.35;99.61
6514;BME280;3290;47.716;9.070;2024-03-29T04:14:18;95204.72;;;5.35;98.82
6514;BME280;3290;47.716;9.070;2024-03-29T04:16:43;95216.34;;;5.32;98.42
6514;BME280;3290;47.716;9.070;2024-03-29T04:19:08;95233.75;;;5.43;97.40
6514;BME280;3290;47.716;9.070;2024-03-29T04:21:34;95233.84;;;5.37;97.36
6514;BME280;3290;47.716;9.070;2024-03-29T04:23:59;95218.94;;;5.32;98.39
6514;BME280;3290;47.716;9.070;2024-03-29T04:26:24;95216.03;;;5.52;97.32
6514;BME280;3290;47.716;9.070;2024-03-29T04:28:49;95218.06;;;5.50;97.65
6514;BME280;3290;47.716;9.070;2024-03-29T04:31:15;95230.16;;;5.44;98.13
6514;BME280;3290;47.716;9.070;2024-03-29T04:33:41;95235.78;;;5.53;98.11
6514;BME280;3290;47.716;9.070;2024-03-29T04:36:06;95234.78;;;5.54;97.51
6514;BME280;3290;47.716;9.070;2024-03-29T04:38:31;95227.75;;;5.54;98.56
6514;BME280;3290;47.716;9.070;2024-03-29T04:40:58;95229.31;;;5.44;99.87
6514;BME280;3290;47.716;9.070;2024-03-29T04:43:27;95199.44;;;5.64;98.72
6514;BME280;3290;47.716;9.070;2024-03-29T04:46:12;95221.59;;;5.78;98.62
6514;BME280;3290;47.716;9.070;2024-03-29T04:48:39;95234.03;;;5.76;99.15
6514;BME280;3290;47.716;9.070;2024-03-29T04:51:05;95249.28;;;5.84;99.24
6514;BME280;3290;47.716;9.070;2024-03-29T04:53:31;95238.31;;;6.04;99.68
6514;BME280;3290;47.716;9.070;2024-03-29T04:55:57;95235.16;;;6.02;99.65
6514;BME280;3290;47.716;9.070;2024-03-29T04:58:26;95232.34;;;6.04;99.97
6514;BME280;3290;47.716;9.070;2024-03-29T05:00:52;95236.03;;;6.19;98.51
6514;BME280;3290;47.716;9.070;2024-03-29T05:03:18;95243.63;;;5.98;99.44
6514;BME280;3290;47.716;9.070;2024-03-29T05:05:44;95221.59;;;5.78;99.36
6514;BME280;3290;47.716;9.070;2024-03-29T05:08:10;95213.75;;;5.66;100.00
6514;BME280;3290;47.716;9.070;2024-03-29T05:10:35;95217.19;;;5.78;99.38
6514;BME280;3290;47.716;9.070;2024-03-29T05:13:00;95218.53;;;5.81;99.31
6514;BME280;3290;47.716;9.070;2024-03-29T05:15:26;95224.75;;;5.91;97.68
6514;BME280;3290;47.716;9.070;2024-03-29T05:17:52;95230.97;;;5.90;96.75
6514;BME280;3290;47.716;9.070;2024-03-29T05:20:18;95233.00;;;6.11;96.13
6514;BME280;3290;47.716;9.070;2024-03-29T05:22:44;95298.66;;;6.06;95.29
6514;BME280;3290;47.716;9.070;2024-03-29T05:25:09;95344.19;;;6.09;95.35
6514;BME280;3290;47.716;9.070;2024-03-29T05:27:34;95362.72;;;6.01;96.67
6514;BME280;3290;47.716;9.070;2024-03-29T05:30:00;95361.72;;;6.13;98.33
6514;BME280;3290;47.716;9.070;2024-03-29T05:32:25;95369.53;;;6.36;98.55
6514;BME280;3290;47.716;9.070;2024-03-29T05:34:51;95371.34;;;6.47;97.32
6514;BME280;3290;47.716;9.070;2024-03-29T05:37:16;95372.72;;;6.49;96.34
6514;BME280;3290;47.716;9.070;2024-03-29T05:39:43;95367.03;;;6.64;95.33
6514;BME280;3290;47.716;9.070;2024-03-29T05:42:08;95345.84;;;6.72;94.39
6514;BME280;3290;47.716;9.070;2024-03-29T05:44:35;95349.31;;;6.49;94.24
6514;BME280;3290;47.716;9.070;2024-03-29T05:47:01;95334.44;;;6.61;91.53
6514;BME280;3290;47.716;9.070;2024-03-29T05:49:29;95335.63;;;7.04;90.48
6514;BME280;3290;47.716;9.070;2024-03-29T05:51:54;95312.13;;;7.16;88.66
6514;BME280;3290;47.716;9.070;2024-03-29T05:54:19;95306.75;;;7.06;90.26
6514;BME280;3290;47.716;9.070;2024-03-29T05:56:45;95278.69;;;6.96;89.75
6514;BME280;3290;47.716;9.070;2024-03-29T05:59:10;95241.78;;;6.72;89.92
6514;BME280;3290;47.716;9.070;2024-03-29T06:01:37;95218.09;;;6.84;90.24
6514;BME280;3290;47.716;9.070;2024-03-29T06:04:02;95199.44;;;6.48;91.43
6514;BME280;3290;47.716;9.070;2024-03-29T06:06:32;95178.66;;;6.92;91.54
6514;BME280;3290;47.716;9.070;2024-03-29T06:08:57;95207.59;;;7.72;87.78
6514;BME280;3290;47.716;9.070;2024-03-29T06:11:22;95265.88;;;7.50;86.26
6514;BME280;3290;47.716;9.070;2024-03-29T06:13:48;95259.94;;;7.38;88.10
6514;BME280;3290;47.716;9.070;2024-03-29T06:16:20;95266.00;;;7.27;88.23
6514;BME280;3290;47.716;9.070;2024-03-29T06:19:04;95279.38;;;7.47;87.95
6514;BME280;3290;47.716;9.070;2024-03-29T06:21:30;95278.44;;;8.02;84.20
6514;BME280;3290;47.716;9.070;2024-03-29T06:24:05;95281.75;;;8.30;81.84
6514;BME280;3290;47.716;9.070;2024-03-29T06:26:31;95272.94;;;8.52;81.51
6514;BME280;3290;47.716;9.070;2024-03-29T06:28:56;95294.84;;;8.94;80.27
6514;BME280;3290;47.716;9.070;2024-03-29T06:31:22;95307.13;;;8.93;80.53
6514;BME280;3290;47.716;9.070;2024-03-29T06:33:47;95295.59;;;9.11;79.76
6514;BME280;3290;47.716;9.070;2024-03-29T06:36:12;95295.84;;;9.35;78.92
6514;BME280;3290;47.716;9.070;2024-03-29T06:38:38;95299.34;;;8.56;82.08
6514;BME280;3290;47.716;9.070;2024-03-29T06:41:03;95291.16;;;9.37;81.71
6514;BME280;3290;47.716;9.070;2024-03-29T06:43:28;95296.22;;;9.44;80.39
6514;BME280;3290;47.716;9.070;2024-03-29T06:45:54;95285.47;;;9.40;79.60
6514;BME280;3290;47.716;9.070;2024-03-29T06:48:19;95276.53;;;9.36;81.21
6514;BME280;3290;47.716;9.070;2024-03-29T06:50:44;95278.56;;;9.29;80.10
6514;BME280;3290;47.716;9.070;2024-03-29T06:53:10;95267.06;;;9.30;80.48
6514;BME280;3290;47.716;9.070;2024-03-29T06:55:35;95264.81;;;9.70;79.18
6514;BME280;3290;47.716;9.070;2024-03-29T06:58:04;95269.75;;;9.66;79.57
6514;BME280;3290;47.716;9.070;2024-03-29T07:00:29;95253.16;;;9.51;77.89
6514;BME280;3290;47.716;9.070;2024-03-29T07:02:55;95268.00;;;9.19;79.77
6514;BME280;3290;47.716;9.070;2024-03-29T07:05:20;95272.63;;;9.65;78.08
6514;BME280;3290;47.716;9.070;2024-03-29T07:07:46;95267.38;;;10.27;74.98
6514;BME280;3290;47.716;9.070;2024-03-29T07:10:12;95276.44;;;10.56;73.93
6514;BME280;3290;47.716;9.070;2024-03-29T07:12:38;95259.91;;;10.45;72.78
6514;BME280;3290;47.716;9.070;2024-03-29T07:15:03;95260.78;;;10.61;72.92
6514;BME280;3290;47.716;9.070;2024-03-29T07:17:29;95263.88;;;10.58;71.81
6514;BME280;3290;47.716;9.070;2024-03-29T07:19:54;95259.78;;;10.72;70.00
6514;BME280;3290;47.716;9.070;2024-03-29T07:22:19;95255.16;;;10.98;69.42
6514;BME280;3290;47.716;9.070;2024-03-29T07:24:45;95266.81;;;10.66;70.93
6514;BME280;3290;47.716;9.070;2024-03-29T07:27:10;95255.31;;;10.72;69.32
6514;BME280;3290;47.716;9.070;2024-03-29T07:29:49;95249.50;;;11.31;69.09
6514;BME280;3290;47.716;9.070;2024-03-29T07:32:14;95245.88;;;12.31;63.98
6514;BME280;3290;47.716;9.070;2024-03-29T07:34:41;95229.91;;;11.88;65.55
6514;BME280;3290;47.716;9.070;2024-03-29T07:37:06;95209.13;;;12.26;66.27
6514;BME280;3290;47.716;9.070;2024-03-29T07:39:33;95198.59;;;12.36;66.01
6514;BME280;3290;47.716;9.070;2024-03-29T07:41:58;95187.22;;;12.60;64.08
6514;BME280;3290;47.716;9.070;2024-03-29T07:44:24;95194.22;;;12.89;62.15
6514;BME280;3290;47.716;9.070;2024-03-29T07:46:49;95178.34;;;13.52;59.82
6514;BME280;3290;47.716;9.070;2024-03-29T07:49:14;95175.63;;;13.95;59.37
6514;BME280;3290;47.716;9.070;2024-03-29T07:51:40;95178.06;;;13.15;58.26
6514;BME280;3290;47.716;9.070;2024-03-29T07:54:05;95174.63;;;13.20;59.86
6514;BME280;3290;47.716;9.070;2024-03-29T07:56:30;95169.25;;;13.34;60.81
6514;BME280;3290;47.716;9.070;2024-03-29T07:58:56;95181.59;;;12.91;63.82
6514;BME280;3290;47.716;9.070;2024-03-29T08:01:22;95192.84;;;13.49;57.42
6514;BME280;3290;47.716;9.070;2024-03-29T08:03:50;95190.81;;;13.31;55.95
6514;BME280;3290;47.716;9.070;2024-03-29T08:06:16;95188.41;;;14.11;54.76
6514;BME280;3290;47.716;9.070;2024-03-29T08:08:44;95195.75;;;12.95;57.40
6514;BME280;3290;47.716;9.070;2024-03-29T08:11:10;95195.53;;;12.04;57.71
6514;BME280;3290;47.716;9.070;2024-03-29T08:13:36;95200.84;;;12.67;58.83
6514;BME280;3290;47.716;9.070;2024-03-29T08:16:02;95196.25;;;12.39;60.17
6514;BME280;3290;47.716;9.070;2024-03-29T08:18:28;95203.13;;;12.93;59.56
6514;BME280;3290;47.716;9.070;2024-03-29T08:20:54;95204.13;;;12.24;62.08
6514;BME280;3290;47.716;9.070;2024-03-29T08:23:24;95197.28;;;12.33;62.67
6514;BME280;3290;47.716;9.070;2024-03-29T08:25:50;95190.28;;;11.99;63.63
6514;BME280;3290;47.716;9.070;2024-03-29T08:28:19;95206.50;;;12.16;67.25
6514;BME280;3290;47.716;9.070;2024-03-29T08:30:44;95223.63;;;11.89;69.37
6514;BME280;3290;47.716;9.070;2024-03-29T08:33:10;95240.13;;;12.14;70.19
6514;BME280;3290;47.716;9.070;2024-03-29T08:35:35;95248.53;;;12.01;71.40
6514;BME280;3290;47.716;9.070;2024-03-29T08:38:01;95239.59;;;12.17;70.99
6514;BME280;3290;47.716;9.070;2024-03-29T08:40:28;95232.16;;;12.58;68.28
6514;BME280;3290;47.716;9.070;2024-03-29T08:42:55;95235.19;;;13.00;65.37
6514;BME280;3290;47.716;9.070;2024-03-29T08:45:21;95238.25;;;13.17;63.58
6514;BME280;3290;47.716;9.070;2024-03-29T08:47:46;95237.25;;;13.13;62.73
6514;BME280;3290;47.716;9.070;2024-03-29T08:50:12;95240.09;;;13.59;61.73
6514;BME280;3290;47.716;9.070;2024-03-29T08:52:38;95242.72;;;13.97;61.68
6514;BME280;3290;47.716;9.070;2024-03-29T08:55:05;95244.41;;;14.21;61.01
6514;BME280;3290;47.716;9.070;2024-03-29T08:57:31;95234.75;;;14.63;60.85
6514;BME280;3290;47.716;9.070;2024-03-29T08:59:56;95225.81;;;15.06;57.36
6514;BME280;3290;47.716;9.070;2024-03-29T09:02:21;95224.41;;;15.13;55.09
6514;BME280;3290;47.716;9.070;2024-03-29T09:04:47;95228.00;;;14.99;53.69
6514;BME280;3290;47.716;9.070;2024-03-29T09:07:12;95230.00;;;13.76;58.19
6514;BME280;3290;47.716;9.070;2024-03-29T09:09:38;95214.75;;;15.27;57.00
6514;BME280;3290;47.716;9.070;2024-03-29T09:12:06;95215.34;;;15.42;56.80
6514;BME280;3290;47.716;9.070;2024-03-29T09:14:32;95204.78;;;15.92;55.30
6514;BME280;3290;47.716;9.070;2024-03-29T09:16:58;95219.31;;;15.76;54.21
6514;BME280;3290;47.716;9.070;2024-03-29T09:19:23;95213.88;;;17.16;51.81
6514;BME280;3290;47.716;9.070;2024-03-29T09:21:49;95207.16;;;16.70;49.82
6514;BME280;3290;47.716;9.070;2024-03-29T09:24:15;95216.38;;;16.99;48.41
6514;BME280;3290;47.716;9.070;2024-03-29T09:26:42;95209.69;;;17.02;48.82
6514;BME280;3290;47.716;9.070;2024-03-29T09:29:08;95200.69;;;17.64;47.15
6514;BME280;3290;47.716;9.070;2024-03-29T09:31:34;95199.50;;;16.95;48.48
6514;BME280;3290;47.716;9.070;2024-03-29T09:33:59;95197.13;;;17.34;47.84
6514;BME280;3290;47.716;9.070;2024-03-29T09:36:25;95193.97;;;17.45;47.62
6514;BME280;3290;47.716;9.070;2024-03-29T09:38:50;95198.06;;;17.51;46.98
6514;BME280;3290;47.716;9.070;2024-03-29T09:41:18;95195.78;;;17.58;46.06
6514;BME280;3290;47.716;9.070;2024-03-29T09:43:47;95192.47;;;18.09;43.69
6514;BME280;3290;47.716;9.070;2024-03-29T09:46:13;95196.25;;;17.60;44.27
6514;BME280;3290;47.716;9.070;2024-03-29T09:48:40;95193.13;;;18.15;43.93
6514;BME280;3290;47.716;9.070;2024-03-29T09:51:07;95186.28;;;17.57;45.44
6514;BME280;3290;47.716;9.070;2024-03-29T09:53:37;95183.63;;;18.83;43.64
6514;BME280;3290;47.716;9.070;2024-03-29T09:56:03;95194.50;;;16.81;47.45
6514;BME280;3290;47.716;9.070;2024-03-29T09:58:36;95188.03;;;17.62;45.26
6514;BME280;3290;47.716;9.070;2024-03-29T10:01:03;95178.34;;;16.82;49.47
6514;BME280;3290;47.716;9.070;2024-03-29T10:03:29;95202.78;;;17.41;47.07
6514;BME280;3290;47.716;9.070;2024-03-29T10:05:59;95171.06;;;18.06;44.94
6514;BME280;3290;47.716;9.070;2024-03-29T10:10:52;95146.28;;;18.32;45.69
6514;BME280;3290;47.716;9.070;2024-03-29T10:13:19;95139.69;;;18.00;46.42
6514;BME280;3290;47.716;9.070;2024-03-29T10:15:44;95145.44;;;17.36;46.29
6514;BME280;3290;47.716;9.070;2024-03-29T10:18:14;95142.69;;;18.06;46.46
6514;BME280;3290;47.716;9.070;2024-03-29T10:20:39;95138.94;;;18.07;44.93
6514;BME280;3290;47.716;9.070;2024-03-29T10:23:05;95153.19;;;17.68;45.36
6514;BME280;3290;47.716;9.070;2024-03-29T10:25:32;95141.09;;;17.19;47.60
6514;BME280;3290;47.716;9.070;2024-03-29T10:28:01;95139.34;;;17.71;47.06
6514;BME280;3290;47.716;9.070;2024-03-29T10:30:30;95133.53;;;18.43;46.01
6514;BME280;3290;47.716;9.070;2024-03-29T10:32:56;95134.88;;;17.58;47.23
6514;BME280;3290;47.716;9.070;2024-03-29T10:35:22;95117.59;;;16.64;46.77
6514;BME280;3290;47.716;9.070;2024-03-29T10:37:47;95100.84;;;17.73;46.27
6514;BME280;3290;47.716;9.070;2024-03-29T10:40:13;95095.66;;;18.12;43.92
6514;BME280;3290;47.716;9.070;2024-03-29T10:42:41;95107.97;;;19.02;41.45
6514;BME280;3290;47.716;9.070;2024-03-29T10:45:07;95111.13;;;18.18;41.06
6514;BME280;3290;47.716;9.070;2024-03-29T10:47:33;95117.88;;;19.52;39.28
6514;BME280;3290;47.716;9.070;2024-03-29T10:49:58;95122.25;;;18.67;38.16
6514;BME280;3290;47.716;9.070;2024-03-29T10:52:24;95122.06;;;19.19;36.90
6514;BME280;3290;47.716;9.070;2024-03-29T10:54:51;95115.13;;;18.46;39.00
6514;BME280;3290;47.716;9.070;2024-03-29T10:57:26;95113.63;;;19.59;39.16
6514;BME280;3290;47.716;9.070;2024-03-29T11:00:11;95123.19;;;18.71;39.35
6514;BME280;3290;47.716;9.070;2024-03-29T11:02:48;95112.53;;;19.94;38.17
6514;BME280;3290;47.716;9.070;2024-03-29T11:05:17;95110.34;;;19.87;38.33
6514;BME280;3290;47.716;9.070;2024-03-29T11:07:44;95117.84;;;19.77;39.15
6514;BME280;3290;47.716;9.070;2024-03-29T11:10:33;95100.66;;;19.24;39.31
6514;BME280;3290;47.716;9.070;2024-03-29T11:15:47;95110.19;;;19.84;39.58
6514;BME280;3290;47.716;9.070;2024-03-29T11:18:15;95114.38;;;20.10;40.40
6514;BME280;3290;47.716;9.070;2024-03-29T11:20:45;95127.06;;;19.54;40.06
6514;BME280;3290;47.716;9.070;2024-03-29T11:23:16;95107.81;;;20.16;40.90
6514;BME280;3290;47.716;9.070;2024-03-29T11:28:09;95085.72;;;20.52;41.24
6514;BME280;3290;47.716;9.070;2024-03-29T11:30:47;95078.84;;;20.88;39.95
6514;BME280;3290;47.716;9.070;2024-03-29T11:35:55;95058.03;;;20.82;40.38
6514;BME280;3290;47.716;9.070;2024-03-29T11:38:21;95047.81;;;21.73;36.88
6514;BME280;3290;47.716;9.070;2024-03-29T11:41:04;95051.72;;;20.95;40.87
6514;BME280;3290;47.716;9.070;2024-03-29T11:43:31;95032.56;;;21.74;37.75
6514;BME280;3290;47.716;9.070;2024-03-29T11:45:58;95038.41;;;22.11;36.93
6514;BME280;3290;47.716;9.070;2024-03-29T11:48:26;95027.03;;;21.91;36.89
6514;BME280;3290;47.716;9.070;2024-03-29T11:50:53;95021.53;;;22.08;36.23
6514;BME280;3290;47.716;9.070;2024-03-29T11:53:19;95021.81;;;21.30;37.30
6514;BME280;3290;47.716;9.070;2024-03-29T11:55:45;95010.34;;;21.70;37.42
6514;BME280;3290;47.716;9.070;2024-03-29T11:58:10;95014.25;;;21.52;37.90
6514;BME280;3290;47.716;9.070;2024-03-29T12:00:38;95027.03;;;21.47;38.34
6514;BME280;3290;47.716;9.070;2024-03-29T12:03:05;95021.50;;;21.84;39.49
6514;BME280;3290;47.716;9.070;2024-03-29T12:05:31;95029.50;;;20.34;41.87
6514;BME280;3290;47.716;9.070;2024-03-29T12:07:57;95020.38;;;21.32;41.70
6514;BME280;3290;47.716;9.070;2024-03-29T12:10:32;95020.28;;;21.49;40.18
6514;BME280;3290;47.716;9.070;2024-03-29T12:13:00;95024.38;;;21.79;38.95
6514;BME280;3290;47.716;9.070;2024-03-29T12:15:32;95019.16;;;21.50;39.30
6514;BME280;3290;47.716;9.070;2024-03-29T12:18:02;95022.50;;;21.47;40.62
6514;BME280;3290;47.716;9.070;2024-03-29T12:20:30;95029.91;;;22.18;37.94
6514;BME280;3290;47.716;9.070;2024-03-29T12:22:58;95029.81;;;22.50;36.75
6514;BME280;3290;47.716;9.070;2024-03-29T12:25:24;95024.44;;;22.97;36.26
6514;BME280;3290;47.716;9.070;2024-03-29T12:27:52;95023.06;;;21.65;38.78
6514;BME280;3290;47.716;9.070;2024-03-29T12:30:18;95026.94;;;22.55;36.47
6514;BME280;3290;47.716;9.070;2024-03-29T12:32:44;95024.84;;;23.23;36.72
6514;BME280;3290;47.716;9.070;2024-03-29T12:35:15;95023.56;;;22.82;36.01
6514;BME280;3290;47.716;9.070;2024-03-29T12:37:50;95016.47;;;24.21;34.00
6514;BME280;3290;47.716;9.070;2024-03-29T12:40:17;95010.56;;;24.28;32.52
6514;BME280;3290;47.716;9.070;2024-03-29T12:42:49;95018.22;;;23.72;33.83
6514;BME280;3290;47.716;9.070;2024-03-29T12:45:16;95020.19;;;23.47;33.79
6514;BME280;3290;47.716;9.070;2024-03-29T12:47:42;95021.03;;;24.06;34.20
6514;BME280;3290;47.716;9.070;2024-03-29T12:50:07;95016.38;;;23.87;32.95
6514;BME280;3290;47.716;9.070;2024-03-29T12:52:40;95018.34;;;23.36;35.54
6514;BME280;3290;47.716;9.070;2024-03-29T12:55:07;95024.88;;;23.11;35.86
6514;BME280;3290;47.716;9.070;2024-03-29T12:57:37;95023.59;;;23.72;34.66
6514;BME280;3290;47.716;9.070;2024-03-29T13:00:03;95022.97;;;23.78;33.99
6514;BME280;3290;47.716;9.070;2024-03-29T13:02:34;95022.44;;;24.15;33.87
6514;BME280;3290;47.716;9.070;2024-03-29T13:04:59;95034.16;;;24.38;34.32
6514;BME280;3290;47.716;9.070;2024-03-29T13:07:27;95036.75;;;23.65;33.53
6514;BME280;3290;47.716;9.070;2024-03-29T13:09:52;95034.81;;;22.40;34.52
6514;BME280;3290;47.716;9.070;2024-03-29T13:12:18;95038.63;;;21.95;35.21
6514;BME280;3290;47.716;9.070;2024-03-29T13:14:43;95039.41;;;21.95;36.67
6514;BME280;3290;47.716;9.070;2024-03-29T13:17:09;95039.06;;;22.52;36.74
6514;BME280;3290;47.716;9.070;2024-03-29T13:19:34;95031.25;;;22.83;34.95
6514;BME280;3290;47.716;9.070;2024-03-29T13:22:00;95034.06;;;22.63;35.40
6514;BME280;3290;47.716;9.070;2024-03-29T13:24:25;95038.69;;;22.18;36.67
6514;BME280;3290;47.716;9.070;2024-03-29T13:26:51;95029.31;;;22.12;36.15
6514;BME280;3290;47.716;9.070;2024-03-29T13:29:16;95034.81;;;22.63;35.47
6514;BME280;3290;47.716;9.070;2024-03-29T13:31:41;95026.91;;;22.79;34.60
6514;BME280;3290;47.716;9.070;2024-03-29T13:34:07;95020.47;;;22.92;33.60